sensor_id;sensor_type;location;lat;lon;timestamp;pressure;altitude;pressure_sealevel;temperature;humidity
75298;BME280;63896;45.990;18.688;2022-10-15T00:01:29;100932.56;;;8.93;91.24
75298;BME280;63896;45.990;18.688;2022-10-15T00:04:33;100933.13;;;8.89;91.12
75298;BME280;63896;45.990;18.688;2022-10-15T00:07:36;100933.78;;;8.91;91.65
75298;BME280;63896;45.990;18.688;2022-10-15T00:10:39;100934.72;;;8.83;91.48
75298;BME280;63896;45.990;18.688;2022-10-15T00:13:42;100930.81;;;8.79;91.52
75298;BME280;63896;45.990;18.688;2022-10-15T00:16:46;100941.53;;;8.71;91.66
75298;BME280;63896;45.990;18.688;2022-10-15T00:19:48;100940.09;;;8.69;92.25
75298;BME280;63896;45.990;18.688;2022-10-15T00:22:51;100941.91;;;8.68;92.43
75298;BME280;63896;45.990;18.688;2022-10-15T00:26:07;100927.31;;;8.57;92.81
75298;BME280;63896;45.990;18.688;2022-10-15T00:29:11;100923.19;;;8.70;93.46
75298;BME280;63896;45.990;18.688;2022-10-15T00:32:14;100923.28;;;8.76;93.11
75298;BME280;63896;45.990;18.688;2022-10-15T00:35:17;100910.66;;;8.78;92.91
75298;BME280;63896;45.990;18.688;2022-10-15T00:38:20;100905.69;;;8.90;92.81
75298;BME280;63896;45.990;18.688;2022-10-15T00:41:33;100907.31;;;8.91;92.18
75298;BME280;63896;45.990;18.688;2022-10-15T00:47:43;100923.63;;;8.94;91.34
75298;BME280;63896;45.990;18.688;2022-10-15T00:50:47;100928.78;;;8.81;90.93
75298;BME280;63896;45.990;18.688;2022-10-15T00:53:50;100932.94;;;8.69;91.46
75298;BME280;63896;45.990;18.688;2022-10-15T00:56:54;100930.06;;;8.64;91.94
75298;BME280;63896;45.990;18.688;2022-10-15T01:00:04;100923.50;;;8.60;91.53
75298;BME280;63896;45.990;18.688;2022-10-15T01:03:08;100924.69;;;8.57;91.46
75298;BME280;63896;45.990;18.688;2022-10-15T01:06:11;100917.25;;;8.46;91.63
75298;BME280;63896;45.990;18.688;2022-10-15T01:09:16;100899.13;;;8.43;91.67
75298;BME280;63896;45.990;18.688;2022-10-15T01:12:32;100912.59;;;8.48;91.88
75298;BME280;63896;45.990;18.688;2022-10-15T01:16:05;100914.38;;;8.41;92.10
75298;BME280;63896;45.990;18.688;2022-10-15T01:23:06;100924.28;;;8.39;92.19
75298;BME280;63896;45.990;18.688;2022-10-15T01:26:23;100919.56;;;8.35;92.21
75298;BME280;63896;45.990;18.688;2022-10-15T01:29:57;100927.50;;;8.35;92.50
75298;BME280;63896;45.990;18.688;2022-10-15T01:36:57;100921.28;;;8.28;92.16
75298;BME280;63896;45.990;18.688;2022-10-15T01:40:04;100928.94;;;8.23;92.88
75298;BME280;63896;45.990;18.688;2022-10-15T01:43:18;100917.22;;;8.10;92.80
75298;BME280;63896;45.990;18.688;2022-10-15T01:47:04;100925.25;;;8.02;92.91
75298;BME280;63896;45.990;18.688;2022-10-15T01:50:11;100926.34;;;8.08;93.70
75298;BME280;63896;45.990;18.688;2022-10-15T01:53:21;100921.94;;;8.15;93.82
75298;BME280;63896;45.990;18.688;2022-10-15T01:56:34;100922.41;;;8.19;93.34
75298;BME280;63896;45.990;18.688;2022-10-15T01:59:41;100915.31;;;8.34;93.66
75298;BME280;63896;45.990;18.688;2022-10-15T02:02:44;100913.06;;;8.52;93.24
75298;BME280;63896;45.990;18.688;2022-10-15T02:05:54;100898.81;;;8.53;92.98
75298;BME280;63896;45.990;18.688;2022-10-15T02:13:16;100899.94;;;8.65;91.96
75298;BME280;63896;45.990;18.688;2022-10-15T02:16:22;100895.28;;;8.67;91.97
75298;BME280;63896;45.990;18.688;2022-10-15T02:22:50;100889.44;;;8.50;91.53
75298;BME280;63896;45.990;18.688;2022-10-15T02:25:57;100897.63;;;8.55;91.22
75298;BME280;63896;45.990;18.688;2022-10-15T02:29:02;100899.19;;;8.50;91.52
75298;BME280;63896;45.990;18.688;2022-10-15T02:32:08;100899.56;;;8.47;91.42
75298;BME280;63896;45.990;18.688;2022-10-15T02:35:12;100904.91;;;8.32;91.80
75298;BME280;63896;45.990;18.688;2022-10-15T02:38:20;100916.38;;;8.25;91.83
75298;BME280;63896;45.990;18.688;2022-10-15T02:41:27;100912.84;;;8.18;91.85
75298;BME280;63896;45.990;18.688;2022-10-15T02:44:31;100927.56;;;8.27;91.73
75298;BME280;63896;45.990;18.688;2022-10-15T02:47:34;100915.03;;;8.14;92.31
75298;BME280;63896;45.990;18.688;2022-10-15T02:50:37;100902.53;;;8.08;92.74
75298;BME280;63896;45.990;18.688;2022-10-15T02:53:40;100904.63;;;8.12;92.66
75298;BME280;63896;45.990;18.688;2022-10-15T02:56:42;100915.66;;;8.16;93.06
75298;BME280;63896;45.990;18.688;2022-10-15T02:59:45;100904.19;;;8.09;92.90
75298;BME280;63896;45.990;18.688;2022-10-15T03:02:48;100893.78;;;8.07;92.73
75298;BME280;63896;45.990;18.688;2022-10-15T03:05:53;100899.72;;;8.09;92.75
75298;BME280;63896;45.990;18.688;2022-10-15T03:08:56;100898.91;;;8.09;93.06
75298;BME280;63896;45.990;18.688;2022-10-15T03:11:59;100890.34;;;8.07;92.97
75298;BME280;63896;45.990;18.688;2022-10-15T03:15:03;100884.25;;;8.06;93.03
75298;BME280;63896;45.990;18.688;2022-10-15T03:18:06;100891.44;;;8.12;93.28
75298;BME280;63896;45.990;18.688;2022-10-15T03:21:10;100885.88;;;8.07;93.41
75298;BME280;63896;45.990;18.688;2022-10-15T03:24:13;100901.66;;;8.01;93.31
75298;BME280;63896;45.990;18.688;2022-10-15T03:27:22;100899.00;;;8.01;93.46
75298;BME280;63896;45.990;18.688;2022-10-15T03:30:29;100909.56;;;8.01;93.47
75298;BME280;63896;45.990;18.688;2022-10-15T03:33:32;100902.56;;;7.93;92.98
75298;BME280;63896;45.990;18.688;2022-10-15T03:36:36;100909.78;;;7.85;92.97
75298;BME280;63896;45.990;18.688;2022-10-15T03:39:43;100911.72;;;7.76;92.98
75298;BME280;63896;45.990;18.688;2022-10-15T03:42:50;100901.22;;;7.83;93.23
75298;BME280;63896;45.990;18.688;2022-10-15T03:46:04;100893.31;;;7.83;93.80
75298;BME280;63896;45.990;18.688;2022-10-15T03:49:11;100896.94;;;7.82;94.00
75298;BME280;63896;45.990;18.688;2022-10-15T03:52:14;100906.50;;;7.83;93.32
75298;BME280;63896;45.990;18.688;2022-10-15T03:55:19;100913.25;;;7.85;93.11
75298;BME280;63896;45.990;18.688;2022-10-15T03:58:23;100918.25;;;7.80;92.93
75298;BME280;63896;45.990;18.688;2022-10-15T04:01:30;100922.38;;;7.68;93.47
75298;BME280;63896;45.990;18.688;2022-10-15T04:04:35;100916.50;;;7.73;93.04
75298;BME280;63896;45.990;18.688;2022-10-15T04:07:39;100911.16;;;7.66;93.58
75298;BME280;63896;45.990;18.688;2022-10-15T04:10:49;100904.22;;;7.65;93.52
75298;BME280;63896;45.990;18.688;2022-10-15T04:13:52;100901.13;;;7.61;93.75
75298;BME280;63896;45.990;18.688;2022-10-15T04:16:55;100903.59;;;7.63;93.38
75298;BME280;63896;45.990;18.688;2022-10-15T04:20:04;100908.72;;;7.64;94.01
75298;BME280;63896;45.990;18.688;2022-10-15T04:23:08;100908.13;;;7.69;94.07
75298;BME280;63896;45.990;18.688;2022-10-15T04:26:13;100904.88;;;7.67;94.14
75298;BME280;63896;45.990;18.688;2022-10-15T04:29:17;100909.63;;;7.72;94.29
75298;BME280;63896;45.990;18.688;2022-10-15T04:32:20;100905.03;;;7.65;94.07
75298;BME280;63896;45.990;18.688;2022-10-15T04:35:24;100914.53;;;7.60;94.32
75298;BME280;63896;45.990;18.688;2022-10-15T04:38:41;100902.94;;;7.61;94.01
75298;BME280;63896;45.990;18.688;2022-10-15T04:41:43;100914.88;;;7.57;93.96
75298;BME280;63896;45.990;18.688;2022-10-15T04:44:48;100915.06;;;7.55;94.43
75298;BME280;63896;45.990;18.688;2022-10-15T04:47:51;100908.34;;;7.53;94.48
75298;BME280;63896;45.990;18.688;2022-10-15T04:51:08;100902.94;;;7.46;94.26
75298;BME280;63896;45.990;18.688;2022-10-15T04:54:25;100892.94;;;7.42;94.04
75298;BME280;63896;45.990;18.688;2022-10-15T04:57:34;100882.75;;;7.39;93.91
75298;BME280;63896;45.990;18.688;2022-10-15T05:00:38;100888.94;;;7.46;94.30
75298;BME280;63896;45.990;18.688;2022-10-15T05:03:55;100892.13;;;7.41;94.08
75298;BME280;63896;45.990;18.688;2022-10-15T05:06:58;100899.94;;;7.35;93.86
75298;BME280;63896;45.990;18.688;2022-10-15T05:10:02;100902.69;;;7.41;93.70
75298;BME280;63896;45.990;18.688;2022-10-15T05:13:04;100912.16;;;7.50;93.80
75298;BME280;63896;45.990;18.688;2022-10-15T05:16:16;100920.59;;;7.46;93.09
75298;BME280;63896;45.990;18.688;2022-10-15T05:19:20;100921.06;;;7.49;93.37
75298;BME280;63896;45.990;18.688;2022-10-15T05:22:23;100917.63;;;7.63;93.29
75298;BME280;63896;45.990;18.688;2022-10-15T05:25:31;100918.63;;;7.62;92.42
75298;BME280;63896;45.990;18.688;2022-10-15T05:28:34;100916.63;;;7.64;92.70
75298;BME280;63896;45.990;18.688;2022-10-15T05:31:38;100905.78;;;7.74;92.32
75298;BME280;63896;45.990;18.688;2022-10-15T05:34:54;100912.97;;;7.80;92.02
75298;BME280;63896;45.990;18.688;2022-10-15T05:38:25;100914.88;;;7.86;92.10
75298;BME280;63896;45.990;18.688;2022-10-15T05:41:29;100922.97;;;7.99;91.55
75298;BME280;63896;45.990;18.688;2022-10-15T05:44:32;100933.81;;;8.04;91.47
75298;BME280;63896;45.990;18.688;2022-10-15T05:47:38;100928.81;;;8.09;91.04
75298;BME280;63896;45.990;18.688;2022-10-15T05:50:48;100930.44;;;8.10;90.76
75298;BME280;63896;45.990;18.688;2022-10-15T05:54:03;100929.16;;;8.21;90.76
75298;BME280;63896;45.990;18.688;2022-10-15T05:57:06;100929.41;;;8.41;90.45
75298;BME280;63896;45.990;18.688;2022-10-15T06:04:24;100926.97;;;8.82;88.86
75298;BME280;63896;45.990;18.688;2022-10-15T06:12:01;100937.88;;;8.72;89.13
75298;BME280;63896;45.990;18.688;2022-10-15T06:15:05;100942.34;;;8.72;89.17
75298;BME280;63896;45.990;18.688;2022-10-15T06:18:09;100934.22;;;8.94;89.00
75298;BME280;63896;45.990;18.688;2022-10-15T06:21:13;100945.53;;;9.09;87.80
75298;BME280;63896;45.990;18.688;2022-10-15T06:24:15;100955.00;;;9.46;87.30
75298;BME280;63896;45.990;18.688;2022-10-15T06:27:18;100948.16;;;9.58;87.27
75298;BME280;63896;45.990;18.688;2022-10-15T06:30:21;100955.53;;;9.63;86.17
75298;BME280;63896;45.990;18.688;2022-10-15T06:33:34;100960.78;;;9.91;85.44
75298;BME280;63896;45.990;18.688;2022-10-15T06:36:37;100961.56;;;9.85;85.04
75298;BME280;63896;45.990;18.688;2022-10-15T06:39:40;100959.91;;;10.66;82.38
75298;BME280;63896;45.990;18.688;2022-10-15T06:42:44;100951.09;;;12.03;76.62
75298;BME280;63896;45.990;18.688;2022-10-15T06:45:47;100948.75;;;12.26;75.70
75298;BME280;63896;45.990;18.688;2022-10-15T06:48:53;100940.88;;;13.14;72.86
75298;BME280;63896;45.990;18.688;2022-10-15T06:51:57;100935.44;;;13.70;71.12
75298;BME280;63896;45.990;18.688;2022-10-15T06:55:06;100926.03;;;14.04;69.59
75298;BME280;63896;45.990;18.688;2022-10-15T06:58:09;100933.50;;;13.59;71.58
75298;BME280;63896;45.990;18.688;2022-10-15T07:01:12;100930.78;;;14.20;68.83
75298;BME280;63896;45.990;18.688;2022-10-15T07:04:15;100942.00;;;13.49;71.57
75298;BME280;63896;45.990;18.688;2022-10-15T07:07:56;100942.78;;;14.89;66.21
75298;BME280;63896;45.990;18.688;2022-10-15T07:11:13;100939.66;;;16.59;59.73
75298;BME280;63896;45.990;18.688;2022-10-15T07:15:17;100948.81;;;18.40;53.78
75298;BME280;63896;45.990;18.688;2022-10-15T07:18:19;100950.41;;;18.90;51.92
75298;BME280;63896;45.990;18.688;2022-10-15T07:21:46;100949.06;;;20.80;46.74
75298;BME280;63896;45.990;18.688;2022-10-15T07:25:08;100951.75;;;22.41;42.20
75298;BME280;63896;45.990;18.688;2022-10-15T07:28:12;100948.94;;;23.05;40.65
75298;BME280;63896;45.990;18.688;2022-10-15T07:31:17;100954.41;;;21.76;43.91
75298;BME280;63896;45.990;18.688;2022-10-15T07:34:20;100943.84;;;21.90;42.59
75298;BME280;63896;45.990;18.688;2022-10-15T07:37:24;100951.44;;;23.83;38.87
75298;BME280;63896;45.990;18.688;2022-10-15T07:40:27;100954.56;;;24.18;37.92
75298;BME280;63896;45.990;18.688;2022-10-15T07:43:31;100954.03;;;23.11;39.95
75298;BME280;63896;45.990;18.688;2022-10-15T07:46:34;100957.25;;;24.80;36.17
75298;BME280;63896;45.990;18.688;2022-10-15T07:49:37;100957.72;;;25.19;35.66
75298;BME280;63896;45.990;18.688;2022-10-15T07:52:40;100959.59;;;24.49;37.04
75298;BME280;63896;45.990;18.688;2022-10-15T07:55:44;100958.03;;;26.45;33.76
75298;BME280;63896;45.990;18.688;2022-10-15T07:58:48;100947.59;;;26.25;33.45
75298;BME280;63896;45.990;18.688;2022-10-15T08:02:00;100952.44;;;25.28;34.82
75298;BME280;63896;45.990;18.688;2022-10-15T08:05:03;100945.75;;;26.70;32.84
75298;BME280;63896;45.990;18.688;2022-10-15T08:08:06;100939.25;;;26.22;33.07
75298;BME280;63896;45.990;18.688;2022-10-15T08:11:11;100947.59;;;27.72;30.95
75298;BME280;63896;45.990;18.688;2022-10-15T08:18:33;100939.16;;;27.91;30.10
75298;BME280;63896;45.990;18.688;2022-10-15T08:21:36;100942.84;;;28.69;29.13
75298;BME280;63896;45.990;18.688;2022-10-15T08:24:43;100947.94;;;29.22;28.51
75298;BME280;63896;45.990;18.688;2022-10-15T08:28:29;100949.25;;;27.29;31.62
75298;BME280;63896;45.990;18.688;2022-10-15T08:31:33;100951.59;;;27.44;31.27
75298;BME280;63896;45.990;18.688;2022-10-15T08:34:39;100957.66;;;25.24;34.44
75298;BME280;63896;45.990;18.688;2022-10-15T08:37:44;100946.94;;;23.15;38.15
75298;BME280;63896;45.990;18.688;2022-10-15T08:40:48;100945.16;;;24.91;36.02
75298;BME280;63896;45.990;18.688;2022-10-15T08:43:53;100948.19;;;26.72;32.39
75298;BME280;63896;45.990;18.688;2022-10-15T08:47:25;100935.38;;;24.52;35.25
75298;BME280;63896;45.990;18.688;2022-10-15T08:50:39;100937.13;;;26.68;32.19
75298;BME280;63896;45.990;18.688;2022-10-15T08:54:08;100939.47;;;27.98;29.90
75298;BME280;63896;45.990;18.688;2022-10-15T08:57:41;100940.69;;;29.17;27.64
75298;BME280;63896;45.990;18.688;2022-10-15T09:00:52;100944.13;;;27.98;30.13
75298;BME280;63896;45.990;18.688;2022-10-15T09:04:29;100943.41;;;26.41;31.83
75298;BME280;63896;45.990;18.688;2022-10-15T09:07:40;100948.09;;;29.17;28.00
75298;BME280;63896;45.990;18.688;2022-10-15T09:10:49;100952.28;;;28.97;27.99
75298;BME280;63896;45.990;18.688;2022-10-15T09:13:54;100948.19;;;27.38;30.91
75298;BME280;63896;45.990;18.688;2022-10-15T09:17:03;100948.59;;;26.65;31.54
75298;BME280;63896;45.990;18.688;2022-10-15T09:20:15;100944.81;;;26.88;30.77
75298;BME280;63896;45.990;18.688;2022-10-15T09:23:25;100943.75;;;28.21;28.90
75298;BME280;63896;45.990;18.688;2022-10-15T09:30:38;100944.91;;;30.28;25.93
75298;BME280;63896;45.990;18.688;2022-10-15T09:34:11;100944.34;;;31.18;24.63
75298;BME280;63896;45.990;18.688;2022-10-15T09:37:24;100939.69;;;30.36;25.60
75298;BME280;63896;45.990;18.688;2022-10-15T09:40:53;100945.78;;;29.45;26.77
75298;BME280;63896;45.990;18.688;2022-10-15T09:44:00;100952.56;;;29.85;26.44
75298;BME280;63896;45.990;18.688;2022-10-15T09:47:19;100951.78;;;29.76;26.47
75298;BME280;63896;45.990;18.688;2022-10-15T09:50:39;100937.50;;;30.91;24.84
75298;BME280;63896;45.990;18.688;2022-10-15T09:57:16;100942.19;;;31.11;25.41
75298;BME280;63896;45.990;18.688;2022-10-15T10:00:22;100937.53;;;31.24;24.68
75298;BME280;63896;45.990;18.688;2022-10-15T10:03:29;100941.38;;;31.11;24.67
75298;BME280;63896;45.990;18.688;2022-10-15T10:06:44;100934.47;;;31.38;24.40
75298;BME280;63896;45.990;18.688;2022-10-15T10:09:52;100921.63;;;30.64;24.93
75298;BME280;63896;45.990;18.688;2022-10-15T10:12:56;100921.25;;;31.07;24.96
75298;BME280;63896;45.990;18.688;2022-10-15T10:16:10;100911.28;;;32.32;23.34
75298;BME280;63896;45.990;18.688;2022-10-15T10:19:22;100911.47;;;31.30;23.48
75298;BME280;63896;45.990;18.688;2022-10-15T10:22:25;100909.78;;;31.50;23.28
75298;BME280;63896;45.990;18.688;2022-10-15T10:25:30;100911.91;;;31.08;24.53
75298;BME280;63896;45.990;18.688;2022-10-15T10:31:46;100891.66;;;31.57;23.66
75298;BME280;63896;45.990;18.688;2022-10-15T10:35:18;100896.34;;;31.00;23.84
75298;BME280;63896;45.990;18.688;2022-10-15T10:38:34;100883.50;;;30.92;24.03
75298;BME280;63896;45.990;18.688;2022-10-15T10:41:57;100877.19;;;29.96;25.43
75298;BME280;63896;45.990;18.688;2022-10-15T10:45:18;100878.91;;;29.71;26.88
75298;BME280;63896;45.990;18.688;2022-10-15T10:48:27;100878.69;;;30.89;25.04
75298;BME280;63896;45.990;18.688;2022-10-15T10:51:30;100879.94;;;31.48;23.51
75298;BME280;63896;45.990;18.688;2022-10-15T10:54:34;100883.66;;;30.74;24.23
75298;BME280;63896;45.990;18.688;2022-10-15T10:57:53;100884.19;;;30.06;25.13
75298;BME280;63896;45.990;18.688;2022-10-15T11:00:57;100886.47;;;31.32;23.61
75298;BME280;63896;45.990;18.688;2022-10-15T11:04:00;100878.91;;;32.13;22.52
75298;BME280;63896;45.990;18.688;2022-10-15T11:07:05;100884.41;;;33.40;21.15
75298;BME280;63896;45.990;18.688;2022-10-15T11:10:27;100877.38;;;33.59;20.73
75298;BME280;63896;45.990;18.688;2022-10-15T11:19:58;100867.47;;;32.51;22.26
75298;BME280;63896;45.990;18.688;2022-10-15T11:30:37;100856.22;;;30.21;25.20
75298;BME280;63896;45.990;18.688;2022-10-15T11:33:58;100856.09;;;28.49;27.41
75298;BME280;63896;45.990;18.688;2022-10-15T11:40:31;100841.31;;;28.32;27.13
75298;BME280;63896;45.990;18.688;2022-10-15T11:43:54;100840.28;;;30.23;24.72
75298;BME280;63896;45.990;18.688;2022-10-15T11:47:10;100833.47;;;29.12;26.20
75298;BME280;63896;45.990;18.688;2022-10-15T11:50:40;100828.38;;;26.49;29.76
75298;BME280;63896;45.990;18.688;2022-10-15T11:57:18;100841.53;;;27.71;27.18
75298;BME280;63896;45.990;18.688;2022-10-15T12:00:38;100837.41;;;26.36;29.08
75298;BME280;63896;45.990;18.688;2022-10-15T12:04:10;100840.56;;;25.39;30.90
75298;BME280;63896;45.990;18.688;2022-10-15T12:07:21;100827.34;;;25.46;30.50
75298;BME280;63896;45.990;18.688;2022-10-15T12:10:52;100821.13;;;25.32;31.01
75298;BME280;63896;45.990;18.688;2022-10-15T12:28:29;100810.72;;;24.93;31.29
75298;BME280;63896;45.990;18.688;2022-10-15T12:31:50;100811.28;;;24.44;32.55
75298;BME280;63896;45.990;18.688;2022-10-15T12:35:00;100800.59;;;25.12;31.42
75298;BME280;63896;45.990;18.688;2022-10-15T12:38:27;100789.94;;;25.43;31.23
75298;BME280;63896;45.990;18.688;2022-10-15T12:41:42;100783.38;;;25.31;31.49
75298;BME280;63896;45.990;18.688;2022-10-15T12:44:50;100784.56;;;26.15;29.89
75298;BME280;63896;45.990;18.688;2022-10-15T12:47:55;100788.53;;;24.73;31.69
75298;BME280;63896;45.990;18.688;2022-10-15T12:54:37;100773.78;;;23.29;35.21
75298;BME280;63896;45.990;18.688;2022-10-15T13:00:46;100782.31;;;23.17;36.05
75298;BME280;63896;45.990;18.688;2022-10-15T13:06:52;100770.06;;;22.72;36.74
75298;BME280;63896;45.990;18.688;2022-10-15T13:09:55;100771.53;;;23.12;35.85
75298;BME280;63896;45.990;18.688;2022-10-15T13:13:02;100776.25;;;22.78;35.89
75298;BME280;63896;45.990;18.688;2022-10-15T13:16:07;100772.41;;;22.79;35.33
75298;BME280;63896;45.990;18.688;2022-10-15T13:19:30;100784.41;;;22.73;36.30
75298;BME280;63896;45.990;18.688;2022-10-15T13:22:35;100783.16;;;22.55;37.22
75298;BME280;63896;45.990;18.688;2022-10-15T13:25:38;100780.56;;;22.40;37.19
75298;BME280;63896;45.990;18.688;2022-10-15T13:28:42;100781.63;;;22.10;38.19
75298;BME280;63896;45.990;18.688;2022-10-15T13:31:45;100778.44;;;22.03;38.58
75298;BME280;63896;45.990;18.688;2022-10-15T13:34:49;100781.84;;;22.19;37.85
75298;BME280;63896;45.990;18.688;2022-10-15T13:37:52;100782.84;;;22.62;37.78
75298;BME280;63896;45.990;18.688;2022-10-15T13:40:55;100783.91;;;22.66;37.84
75298;BME280;63896;45.990;18.688;2022-10-15T13:43:58;100785.22;;;21.96;38.99
75298;BME280;63896;45.990;18.688;2022-10-15T13:47:02;100781.19;;;21.88;38.29
75298;BME280;63896;45.990;18.688;2022-10-15T13:50:36;100780.22;;;21.64;39.03
75298;BME280;63896;45.990;18.688;2022-10-15T13:53:40;100791.91;;;21.49;40.04
75298;BME280;63896;45.990;18.688;2022-10-15T13:56:51;100787.97;;;21.16;41.49
75298;BME280;63896;45.990;18.688;2022-10-15T13:59:54;100790.88;;;21.40;40.25
75298;BME280;63896;45.990;18.688;2022-10-15T14:03:17;100783.91;;;21.83;39.27
75298;BME280;63896;45.990;18.688;2022-10-15T14:06:32;100775.06;;;21.72;39.44
75298;BME280;63896;45.990;18.688;2022-10-15T14:09:37;100770.44;;;21.78;39.65
75298;BME280;63896;45.990;18.688;2022-10-15T14:12:41;100771.88;;;21.65;39.94
75298;BME280;63896;45.990;18.688;2022-10-15T14:15:55;100783.38;;;21.17;40.48
75298;BME280;63896;45.990;18.688;2022-10-15T14:19:13;100773.34;;;21.32;41.08
75298;BME280;63896;45.990;18.688;2022-10-15T14:22:20;100771.44;;;21.38;41.20
75298;BME280;63896;45.990;18.688;2022-10-15T14:25:27;100772.78;;;21.41;41.46
75298;BME280;63896;45.990;18.688;2022-10-15T14:28:31;100778.44;;;21.44;39.94
75298;BME280;63896;45.990;18.688;2022-10-15T14:31:39;100775.59;;;20.90;42.90
75298;BME280;63896;45.990;18.688;2022-10-15T14:34:42;100773.75;;;20.65;43.72
75298;BME280;63896;45.990;18.688;2022-10-15T14:37:45;100776.16;;;20.82;42.95
75298;BME280;63896;45.990;18.688;2022-10-15T14:44:23;100776.41;;;20.20;44.71
75298;BME280;63896;45.990;18.688;2022-10-15T14:47:29;100769.13;;;20.20;44.06
75298;BME280;63896;45.990;18.688;2022-10-15T14:50:39;100773.44;;;20.21;44.34
75298;BME280;63896;45.990;18.688;2022-10-15T14:53:44;100780.94;;;19.84;45.36
75298;BME280;63896;45.990;18.688;2022-10-15T14:56:49;100782.31;;;20.07;44.83
75298;BME280;63896;45.990;18.688;2022-10-15T14:59:55;100786.84;;;19.81;45.73
75298;BME280;63896;45.990;18.688;2022-10-15T15:03:01;100786.78;;;19.61;46.31
75298;BME280;63896;45.990;18.688;2022-10-15T15:06:06;100789.69;;;19.54;46.92
75298;BME280;63896;45.990;18.688;2022-10-15T15:09:10;100787.72;;;19.39;47.29
75298;BME280;63896;45.990;18.688;2022-10-15T15:12:20;100791.94;;;19.20;47.90
75298;BME280;63896;45.990;18.688;2022-10-15T15:15:28;100795.13;;;19.12;48.04
75298;BME280;63896;45.990;18.688;2022-10-15T15:18:31;100794.81;;;19.09;48.18
75298;BME280;63896;45.990;18.688;2022-10-15T15:21:34;100802.59;;;19.05;48.20
75298;BME280;63896;45.990;18.688;2022-10-15T15:24:37;100795.59;;;18.99;48.68
75298;BME280;63896;45.990;18.688;2022-10-15T15:27:40;100792.09;;;18.98;48.44
75298;BME280;63896;45.990;18.688;2022-10-15T15:30:43;100785.03;;;18.87;48.76
75298;BME280;63896;45.990;18.688;2022-10-15T15:33:46;100785.94;;;18.66;49.78
75298;BME280;63896;45.990;18.688;2022-10-15T15:36:51;100781.25;;;18.51;50.01
75298;BME280;63896;45.990;18.688;2022-10-15T15:39:54;100790.03;;;18.42;50.12
75298;BME280;63896;45.990;18.688;2022-10-15T15:42:59;100793.47;;;18.37;50.02
75298;BME280;63896;45.990;18.688;2022-10-15T15:46:02;100798.75;;;18.27;50.39
75298;BME280;63896;45.990;18.688;2022-10-15T15:49:04;100794.91;;;18.18;50.78
75298;BME280;63896;45.990;18.688;2022-10-15T15:52:10;100794.31;;;18.11;50.71
75298;BME280;63896;45.990;18.688;2022-10-15T15:55:15;100798.00;;;18.05;50.87
75298;BME280;63896;45.990;18.688;2022-10-15T15:58:20;100791.41;;;17.91;51.41
75298;BME280;63896;45.990;18.688;2022-10-15T16:01:23;100792.91;;;17.82;51.49
75298;BME280;63896;45.990;18.688;2022-10-15T16:04:26;100803.03;;;17.75;52.38
75298;BME280;63896;45.990;18.688;2022-10-15T16:07:29;100796.78;;;17.69;52.43
75298;BME280;63896;45.990;18.688;2022-10-15T16:10:33;100796.91;;;17.57;53.05
75298;BME280;63896;45.990;18.688;2022-10-15T16:13:36;100804.38;;;17.55;53.22
75298;BME280;63896;45.990;18.688;2022-10-15T16:16:39;100808.63;;;17.51;53.36
75298;BME280;63896;45.990;18.688;2022-10-15T16:19:42;100817.41;;;17.47;53.71
75298;BME280;63896;45.990;18.688;2022-10-15T16:22:52;100815.66;;;17.36;54.64
75298;BME280;63896;45.990;18.688;2022-10-15T16:25:55;100825.19;;;17.27;54.92
75298;BME280;63896;45.990;18.688;2022-10-15T16:28:58;100828.28;;;17.19;55.58
75298;BME280;63896;45.990;18.688;2022-10-15T16:32:01;100831.25;;;17.17;55.64
75298;BME280;63896;45.990;18.688;2022-10-15T16:35:05;100841.47;;;17.20;56.31
75298;BME280;63896;45.990;18.688;2022-10-15T16:38:08;100847.25;;;17.12;56.23
75298;BME280;63896;45.990;18.688;2022-10-15T16:41:12;100857.09;;;17.06;55.83
75298;BME280;63896;45.990;18.688;2022-10-15T16:44:15;100866.59;;;16.97;57.19
75298;BME280;63896;45.990;18.688;2022-10-15T16:47:18;100874.41;;;16.99;56.90
75298;BME280;63896;45.990;18.688;2022-10-15T16:50:23;100880.56;;;16.99;56.67
75298;BME280;63896;45.990;18.688;2022-10-15T16:53:25;100879.34;;;16.90;57.91
75298;BME280;63896;45.990;18.688;2022-10-15T16:56:29;100884.78;;;16.79;58.50
75298;BME280;63896;45.990;18.688;2022-10-15T16:59:32;100888.69;;;16.71;58.77
75298;BME280;63896;45.990;18.688;2022-10-15T17:02:35;100889.91;;;16.63;59.56
75298;BME280;63896;45.990;18.688;2022-10-15T17:05:38;100895.63;;;16.55;59.66
75298;BME280;63896;45.990;18.688;2022-10-15T17:08:45;100896.47;;;16.44;59.90
75298;BME280;63896;45.990;18.688;2022-10-15T17:11:48;100901.75;;;16.39;59.64
75298;BME280;63896;45.990;18.688;2022-10-15T17:14:51;100911.78;;;16.32;59.74
75298;BME280;63896;45.990;18.688;2022-10-15T17:17:54;100918.72;;;16.45;58.77
75298;BME280;63896;45.990;18.688;2022-10-15T17:20:57;100916.28;;;16.43;58.73
75298;BME280;63896;45.990;18.688;2022-10-15T17:24:04;100919.19;;;16.42;59.39
75298;BME280;63896;45.990;18.688;2022-10-15T17:27:08;100919.66;;;16.39;59.68
75298;BME280;63896;45.990;18.688;2022-10-15T17:30:11;100920.97;;;16.36;60.20
75298;BME280;63896;45.990;18.688;2022-10-15T17:33:15;100926.31;;;16.36;60.07
75298;BME280;63896;45.990;18.688;2022-10-15T17:36:20;100930.38;;;16.39;60.25
75298;BME280;63896;45.990;18.688;2022-10-15T17:39:23;100930.28;;;16.34;60.46
75298;BME280;63896;45.990;18.688;2022-10-15T17:42:26;100927.75;;;16.27;60.97
75298;BME280;63896;45.990;18.688;2022-10-15T17:45:29;100931.47;;;16.26;60.87